South Nutfield, United Kingdom
Current Conditions -  °F | °C
As of 2:20 PM on Saturday 22 Nov 2014 (Local Time) from EGKK Reporting Station
Drizzle Drizzle  
Wind Chill: 57°   Ceiling: 700
Heat Index: 57°   Visibility: 4mi
Dew Point: 55°   Wind: 5mph
Humidity: 94%   Direction: 180°S
Pressure: 29.91"   Gusts: NA
Location:  51.02°N, 0.13°W
Report Text: EGKK 221420Z 18004KT 6000 -DZ BKN007 14/13 Q1013
Loading
Personal Weather Stations






























Interactive Weather Map New forecast layout! Learn more

10-Day Weather Forecast

Advertisements
Track Severe Weather on mobile